Time;durP1;ratioP1;P1;durP2;ratioP2;P2;SDS_P1;SDS_P2;PMS_P1;PMS_P2;Temp;Humidity;BMP_temperature;BMP_pressure;BME280_temperature;BME280_humidity;BME280_pressure;Samples;Min_cycle;Max_cycle;Signal;HPM_P1;HPM_P2
2022/04/19 00:01:25;;;;;;;6.07;2.60;;;;;;;9.87;99.32;98824.03;5054656;28;20201;-81
2022/04/19 00:03:56;;;;;;;5.30;2.60;;;;;;;9.99;98.39;98817.91;5051336;28;20204;-80
2022/04/19 00:06:25;;;;;;;5.53;2.60;;;;;;;9.80;98.18;98820.09;5049467;28;20274;-80
2022/04/19 00:08:55;;;;;;;5.13;2.10;;;;;;;9.73;99.84;98817.84;5049605;28;20204;-80
2022/04/19 00:11:24;;;;;;;5.97;2.63;;;;;;;9.74;100.00;98814.25;5052610;28;20191;-79
2022/04/19 00:13:53;;;;;;;5.57;2.30;;;;;;;9.74;100.00;98811.59;4972323;28;20242;-80
2022/04/19 00:16:22;;;;;;;4.40;2.50;;;;;;;9.64;100.00;98807.03;4966598;28;20686;-80
2022/04/19 00:18:50;;;;;;;4.47;2.43;;;;;;;9.49;100.00;98806.25;4969960;28;20215;-80
2022/04/19 00:21:20;;;;;;;3.30;2.00;;;;;;;8.86;100.00;98812.03;4916535;29;20198;-81
2022/04/19 00:23:50;;;;;;;3.17;2.00;;;;;;;8.91;100.00;98817.91;4898464;29;20214;-80
2022/04/19 00:26:21;;;;;;;4.37;2.20;;;;;;;8.95;100.00;98810.63;4914734;29;20281;-80
2022/04/19 00:28:49;;;;;;;5.03;1.87;;;;;;;9.03;100.00;98806.53;4914148;29;20201;-80
2022/04/19 00:31:19;;;;;;;3.43;1.90;;;;;;;8.94;100.00;98799.22;4928837;28;20218;-80
2022/04/19 00:33:51;;;;;;;3.17;1.90;;;;;;;8.75;100.00;98801.31;5015494;28;20205;-80
2022/04/19 00:36:23;;;;;;;2.43;1.90;;;;;;;8.68;100.00;98810.53;4993482;28;20207;-80
2022/04/19 00:38:52;;;;;;;3.33;1.90;;;;;;;8.59;100.00;98802.28;4999292;28;20232;-80
2022/04/19 00:41:22;;;;;;;3.17;2.30;;;;;;;8.30;100.00;98797.88;4993332;28;20621;-79
2022/04/19 00:43:56;;;;;;;2.37;2.07;;;;;;;8.26;100.00;98788.44;4989220;28;20227;-80
2022/04/19 00:46:25;;;;;;;5.60;2.27;;;;;;;8.38;100.00;98787.72;4990939;28;20274;-80
2022/04/19 00:48:56;;;;;;;4.07;2.27;;;;;;;8.57;100.00;98788.28;4955241;28;20331;-80
2022/04/19 00:51:28;;;;;;;5.40;2.30;;;;;;;8.77;100.00;98786.22;4896379;29;20317;-80
2022/04/19 00:53:59;;;;;;;4.23;2.27;;;;;;;8.87;100.00;98782.03;4893631;29;20209;-80
2022/04/19 00:56:30;;;;;;;3.83;2.37;;;;;;;8.78;100.00;98785.25;4892548;29;20198;-80
2022/04/19 00:58:59;;;;;;;4.17;2.10;;;;;;;8.69;100.00;98773.50;4895880;29;20210;-80
2022/04/19 01:01:27;;;;;;;3.67;2.20;;;;;;;8.69;100.00;98777.94;4893738;29;20665;-80
2022/04/19 01:04:03;;;;;;;3.40;2.13;;;;;;;8.50;100.00;98776.44;4904275;29;20272;-80
2022/04/19 01:06:48;;;;;;;2.37;1.90;;;;;;;8.34;100.00;98773.00;4937218;28;20203;-80
2022/04/19 01:09:28;;;;;;;2.93;1.83;;;;;;;8.32;100.00;98772.25;4934818;29;20205;-80
2022/04/19 01:15:21;;;;;;;2.40;1.70;;;;;;;7.92;100.00;98769.38;4920163;28;20735;-80
2022/04/19 01:18:02;;;;;;;3.40;2.20;;;;;;;7.83;100.00;98766.44;4953278;28;20197;-79
2022/04/19 01:20:31;;;;;;;4.07;2.13;;;;;;;8.07;100.00;98764.97;4951970;29;20197;-80
2022/04/19 01:23:04;;;;;;;4.13;2.00;;;;;;;8.19;100.00;98766.00;4955304;28;20215;-80
2022/04/19 01:25:32;;;;;;;3.87;2.00;;;;;;;8.27;100.00;98761.13;4952253;29;20200;-79
2022/04/19 01:28:00;;;;;;;4.33;2.10;;;;;;;8.27;100.00;98758.47;4951022;29;20192;-79
2022/04/19 01:30:29;;;;;;;3.27;2.20;;;;;;;8.12;100.00;98762.06;4952924;28;20231;-79
2022/04/19 01:32:57;;;;;;;3.17;2.03;;;;;;;7.77;100.00;98756.25;4953591;29;20196;-79
2022/04/19 01:35:26;;;;;;;3.20;2.10;;;;;;;7.72;100.00;98754.75;4881767;29;20195;-79
2022/04/19 01:37:54;;;;;;;2.10;1.83;;;;;;;7.69;100.00;98748.78;4888477;29;20226;-79
2022/04/19 01:40:26;;;;;;;4.33;1.73;;;;;;;7.56;100.00;98750.44;4897088;29;20213;-80
2022/04/19 01:42:59;;;;;;;3.13;2.00;;;;;;;7.67;100.00;98748.88;4897170;29;20234;-79
2022/04/19 01:45:29;;;;;;;4.77;2.00;;;;;;;7.72;100.00;98744.19;4890554;29;20202;-79
2022/04/19 01:47:59;;;;;;;3.33;1.90;;;;;;;7.87;100.00;98744.22;4893634;29;20272;-79
2022/04/19 01:50:30;;;;;;;2.83;1.77;;;;;;;7.77;100.00;98743.91;4899817;29;20226;-79
2022/04/19 01:53:00;;;;;;;2.63;2.07;;;;;;;7.65;100.00;98742.00;4913666;28;20204;-79
2022/04/19 01:55:32;;;;;;;3.43;1.80;;;;;;;7.70;100.00;98738.16;4954815;28;20291;-80
2022/04/19 01:58:01;;;;;;;3.13;1.97;;;;;;;7.61;100.00;98746.59;4972803;28;20219;-79
2022/04/19 02:00:31;;;;;;;2.43;1.90;;;;;;;7.58;100.00;98738.03;4993134;28;20206;-80
2022/04/19 02:02:59;;;;;;;2.83;1.80;;;;;;;7.57;100.00;98752.16;5006766;28;20198;-80
2022/04/19 02:05:27;;;;;;;3.47;2.17;;;;;;;7.58;100.00;98745.94;5006671;28;20326;-80
2022/04/19 02:07:56;;;;;;;3.47;1.83;;;;;;;7.40;100.00;98747.84;4973868;28;20738;-80
2022/04/19 02:10:24;;;;;;;3.23;2.10;;;;;;;7.36;100.00;98747.19;5030835;28;20226;-80
2022/04/19 02:12:54;;;;;;;2.20;1.90;;;;;;;7.28;100.00;98745.94;5048541;28;20199;-80
2022/04/19 02:15:23;;;;;;;2.20;1.60;;;;;;;7.15;100.00;98748.41;5069371;28;20219;-80
2022/04/19 02:17:52;;;;;;;4.23;2.13;;;;;;;7.14;100.00;98749.31;5024798;28;20216;-80
2022/04/19 02:20:20;;;;;;;4.93;2.40;;;;;;;7.33;100.00;98752.59;5031726;28;20193;-80
2022/04/19 02:22:50;;;;;;;3.57;2.23;;;;;;;7.41;100.00;98753.03;5031683;28;20193;-79
2022/04/19 02:25:19;;;;;;;2.97;1.90;;;;;;;7.42;100.00;98746.81;4953638;28;20283;-79
2022/04/19 02:27:50;;;;;;;2.60;2.10;;;;;;;7.60;100.00;98744.91;4946142;28;20692;-79
2022/04/19 02:30:20;;;;;;;2.10;1.80;;;;;;;7.44;100.00;98750.22;4949385;28;20204;-79
2022/04/19 02:32:51;;;;;;;2.90;2.03;;;;;;;7.41;100.00;98750.38;4942257;28;20200;-80
2022/04/19 02:35:20;;;;;;;3.60;1.93;;;;;;;7.39;100.00;98743.53;4949140;28;20200;-79
2022/04/19 02:37:52;;;;;;;2.30;2.10;;;;;;;7.17;100.00;98743.91;4948460;28;20201;-80
2022/04/19 02:40:25;;;;;;;1.97;1.70;;;;;;;7.04;100.00;98750.78;4955849;28;20208;-79
2022/04/19 02:42:56;;;;;;;2.10;1.90;;;;;;;7.06;100.00;98751.56;4998034;28;20230;-80
2022/04/19 02:45:27;;;;;;;3.03;1.93;;;;;;;7.08;100.00;98744.44;4991380;28;20763;-79
2022/04/19 02:48:03;;;;;;;3.13;1.93;;;;;;;7.16;100.00;98748.31;4986156;28;20195;-80
2022/04/19 02:50:34;;;;;;;4.17;2.40;;;;;;;6.99;100.00;98737.03;5030890;28;20200;-81
2022/04/19 02:53:03;;;;;;;3.77;2.07;;;;;;;7.06;100.00;98744.50;5057442;28;20210;-79
2022/04/19 02:55:36;;;;;;;2.53;2.00;;;;;;;7.06;100.00;98733.97;5066763;28;20261;-79
2022/04/19 02:58:07;;;;;;;6.33;2.20;;;;;;;6.95;100.00;98739.00;5070538;28;20204;-79
2022/04/19 03:00:38;;;;;;;3.10;1.80;;;;;;;6.97;100.00;98736.28;5067911;28;20200;-80
2022/04/19 03:03:09;;;;;;;3.97;2.00;;;;;;;7.07;100.00;98730.41;5076224;28;20279;-80
2022/04/19 03:05:40;;;;;;;3.23;2.03;;;;;;;6.76;100.00;98728.66;5072663;28;20204;-79
2022/04/19 03:08:09;;;;;;;3.53;1.97;;;;;;;6.76;100.00;98736.56;5066676;28;20192;-80
2022/04/19 03:10:38;;;;;;;2.73;2.07;;;;;;;6.72;100.00;98736.78;5069060;28;20209;-80
2022/04/19 03:13:08;;;;;;;2.00;1.80;;;;;;;6.72;100.00;98729.75;5066376;28;20805;-80
2022/04/19 03:15:46;;;;;;;3.20;2.40;;;;;;;6.63;100.00;98735.50;5027443;28;20198;-80
2022/04/19 03:18:17;;;;;;;5.27;2.43;;;;;;;6.77;100.00;98727.72;5022785;28;20210;-80
2022/04/19 03:20:46;;;;;;;3.60;2.27;;;;;;;7.02;100.00;98737.72;5028361;28;20232;-80
2022/04/19 03:28:47;;;;;;;3.93;2.00;;;;;;;7.09;100.00;98725.91;5034532;28;20921;-79
2022/04/19 03:31:18;;;;;;;3.20;2.23;;;;;;;6.94;100.00;98729.38;5027546;28;20228;-79
2022/04/19 03:33:52;;;;;;;4.40;2.17;;;;;;;6.91;100.00;98726.94;5013343;28;20202;-80
2022/04/19 03:36:21;;;;;;;4.90;2.13;;;;;;;6.91;100.00;98726.94;5015860;28;20209;-79
2022/04/19 03:38:49;;;;;;;3.33;2.10;;;;;;;6.90;100.00;98727.88;5019981;28;20255;-80
2022/04/19 03:41:18;;;;;;;3.47;2.40;;;;;;;6.92;100.00;98730.41;5086307;28;20203;-80
2022/04/19 03:43:51;;;;;;;2.80;2.20;;;;;;;7.07;100.00;98730.41;5089304;28;20208;-79
2022/04/19 03:46:26;;;;;;;2.83;2.13;;;;;;;6.66;100.00;98730.09;5088158;28;20259;-80
2022/04/19 03:48:56;;;;;;;3.97;2.20;;;;;;;6.76;100.00;98735.69;5096702;28;20184;-80
2022/04/19 03:51:24;;;;;;;2.97;2.43;;;;;;;6.85;100.00;98728.16;5083790;28;20265;-80
2022/04/19 03:53:53;;;;;;;4.17;2.27;;;;;;;6.96;100.00;98731.97;5053653;28;20648;-80
2022/04/19 03:56:22;;;;;;;3.37;2.40;;;;;;;6.87;100.00;98726.28;5050633;28;20209;-79
2022/04/19 03:58:50;;;;;;;3.20;2.30;;;;;;;6.69;100.00;98740.44;5033056;28;20201;-79
2022/04/19 04:01:20;;;;;;;4.77;1.97;;;;;;;6.65;100.00;98735.41;5033104;28;20721;-80
2022/04/19 04:03:52;;;;;;;3.90;1.90;;;;;;;6.74;100.00;98729.66;5036372;28;20750;-79
2022/04/19 04:06:20;;;;;;;4.17;2.03;;;;;;;6.60;100.00;98727.78;5030147;28;20206;-79
2022/04/19 04:08:50;;;;;;;2.53;2.00;;;;;;;6.50;100.00;98724.81;5027973;28;20228;-80
2022/04/19 04:11:19;;;;;;;2.87;2.27;;;;;;;6.67;100.00;98723.91;5032959;28;20670;-80
2022/04/19 04:13:47;;;;;;;3.27;2.20;;;;;;;6.51;100.00;98733.56;5051577;28;20193;-79
2022/04/19 04:16:16;;;;;;;3.23;2.13;;;;;;;6.60;100.00;98722.53;5054641;28;20197;-80
2022/04/19 04:18:45;;;;;;;4.00;2.50;;;;;;;6.46;100.00;98722.41;5058594;28;20656;-80
2022/04/19 04:21:17;;;;;;;4.57;2.53;;;;;;;6.38;100.00;98728.13;5031533;28;20351;-80
2022/04/19 04:23:46;;;;;;;3.23;2.33;;;;;;;6.45;100.00;98732.09;5039061;28;20201;-80
2022/04/19 04:26:15;;;;;;;3.37;2.40;;;;;;;6.47;100.00;98732.03;5007725;28;20256;-79
2022/04/19 04:28:44;;;;;;;4.13;2.70;;;;;;;6.53;100.00;98734.31;4980911;28;20204;-80
2022/04/19 04:31:14;;;;;;;5.63;2.77;;;;;;;6.57;100.00;98727.97;4971538;28;20191;-79
2022/04/19 04:33:47;;;;;;;4.93;2.53;;;;;;;6.26;100.00;98729.59;4977809;28;20204;-80
2022/04/19 04:36:17;;;;;;;5.53;2.97;;;;;;;6.15;100.00;98744.25;4972222;28;20203;-79
2022/04/19 04:38:47;;;;;;;3.90;2.67;;;;;;;6.28;100.00;98735.66;4972052;28;20199;-80
2022/04/19 04:41:16;;;;;;;4.30;2.80;;;;;;;6.44;100.00;98734.81;4994423;28;20215;-79
2022/04/19 04:43:45;;;;;;;4.67;3.37;;;;;;;6.58;100.00;98743.66;4991303;28;20237;-80
2022/04/19 04:52:03;;;;;;;3.50;2.70;;;;;;;6.37;100.00;98736.94;4935226;29;20232;-80
2022/04/19 04:54:33;;;;;;;3.77;2.63;;;;;;;6.37;100.00;98743.94;4978593;28;20294;-80
2022/04/19 04:57:02;;;;;;;4.50;2.80;;;;;;;6.49;100.00;98738.06;4993213;28;20203;-80
2022/04/19 04:59:31;;;;;;;4.63;2.70;;;;;;;6.64;100.00;98739.84;4994953;28;20219;-80
2022/04/19 05:02:00;;;;;;;3.63;2.90;;;;;;;6.83;100.00;98732.63;4998273;28;20195;-80
2022/04/19 05:04:32;;;;;;;3.77;3.07;;;;;;;6.96;100.00;98737.22;4983621;28;20214;-80
2022/04/19 05:07:05;;;;;;;4.40;3.17;;;;;;;6.91;100.00;98739.25;4973329;28;20203;-80
2022/04/19 05:09:35;;;;;;;4.87;3.20;;;;;;;6.80;100.00;98737.22;4976705;28;20207;-80
2022/04/19 05:12:05;;;;;;;5.47;3.30;;;;;;;6.89;100.00;98741.97;4972376;28;20211;-81
2022/04/19 05:14:33;;;;;;;5.57;3.43;;;;;;;6.85;100.00;98745.69;4956876;28;20216;-79
2022/04/19 05:17:02;;;;;;;6.27;3.47;;;;;;;6.79;100.00;98733.75;4970185;28;20208;-80
2022/04/19 05:19:32;;;;;;;7.00;3.33;;;;;;;6.85;100.00;98735.16;4994073;28;20208;-81
2022/04/19 05:22:00;;;;;;;4.00;3.37;;;;;;;6.87;100.00;98723.63;5043790;28;20242;-80
2022/04/19 05:24:30;;;;;;;5.43;3.57;;;;;;;6.93;100.00;98721.59;5054669;28;20188;-80
2022/04/19 05:27:00;;;;;;;6.20;3.30;;;;;;;7.11;100.00;98726.66;5052578;28;20204;-79
2022/04/19 05:29:29;;;;;;;5.23;3.93;;;;;;;7.20;100.00;98727.06;5051712;28;20209;-80
2022/04/19 05:31:59;;;;;;;4.83;3.70;;;;;;;7.31;100.00;98728.16;5047383;28;20200;-79
2022/04/19 05:34:27;;;;;;;6.77;3.83;;;;;;;7.31;100.00;98730.78;5059216;28;20197;-80
2022/04/19 05:36:56;;;;;;;6.83;3.93;;;;;;;7.35;100.00;98723.56;5052687;28;20200;-80
2022/04/19 05:39:24;;;;;;;6.03;3.90;;;;;;;7.46;100.00;98723.78;5057739;28;20184;-80
2022/04/19 05:41:54;;;;;;;4.70;3.73;;;;;;;7.39;100.00;98730.34;5078205;28;20253;-79
2022/04/19 05:44:24;;;;;;;5.57;3.83;;;;;;;7.41;100.00;98737.22;5072593;28;20228;-80
2022/04/19 05:46:54;;;;;;;7.00;3.80;;;;;;;7.54;100.00;98731.25;5072036;28;20204;-81
2022/04/19 05:49:23;;;;;;;5.63;4.13;;;;;;;7.50;100.00;98733.19;5070530;28;20207;-80
2022/04/19 05:51:52;;;;;;;5.57;4.00;;;;;;;7.45;100.00;98744.03;5067160;28;20211;-80
2022/04/19 05:54:23;;;;;;;5.33;3.73;;;;;;;7.65;100.00;98742.00;5071602;28;20192;-80
2022/04/19 05:56:51;;;;;;;6.57;4.00;;;;;;;7.62;100.00;98745.66;5065303;28;20271;-80
2022/04/19 05:59:22;;;;;;;6.37;4.57;;;;;;;7.83;100.00;98750.63;5070842;28;20294;-80
2022/04/19 06:04:54;;;;;;;5.70;4.57;;;;;;;7.59;100.00;98747.63;5071140;28;20341;-80
2022/04/19 06:07:23;;;;;;;5.93;3.83;;;;;;;7.78;100.00;98756.16;5068200;28;20224;-80
2022/04/19 06:09:56;;;;;;;8.33;4.70;;;;;;;7.82;100.00;98751.56;5068876;28;20188;-79
2022/04/19 06:12:24;;;;;;;5.90;4.37;;;;;;;8.17;100.00;98752.06;5065558;28;20216;-79
2022/04/19 06:14:56;;;;;;;5.73;4.40;;;;;;;8.30;100.00;98753.88;5070672;28;20200;-80
2022/04/19 06:17:32;;;;;;;6.33;4.90;;;;;;;8.41;100.00;98755.88;5069392;28;20200;-80
2022/04/19 06:20:01;;;;;;;6.57;4.53;;;;;;;8.52;100.00;98756.06;5076132;28;20196;-79
2022/04/19 06:22:30;;;;;;;5.23;4.47;;;;;;;8.63;100.00;98758.03;5068686;28;20189;-80
2022/04/19 06:25:01;;;;;;;5.10;4.47;;;;;;;8.86;100.00;98753.94;5079643;27;20187;-80
2022/04/19 06:27:30;;;;;;;6.77;4.50;;;;;;;8.82;100.00;98749.81;5071494;28;20188;-80
2022/04/19 06:30:00;;;;;;;5.10;4.53;;;;;;;8.87;100.00;98750.34;5033723;28;20236;-80
2022/04/19 06:32:29;;;;;;;7.20;4.90;;;;;;;9.06;100.00;98745.59;5034394;28;20201;-79
2022/04/19 06:34:57;;;;;;;9.80;4.50;;;;;;;9.26;100.00;98740.81;5029110;28;20193;-80
2022/04/19 06:37:30;;;;;;;7.20;4.80;;;;;;;9.36;100.00;98747.19;5030755;28;20205;-80
2022/04/19 06:40:06;;;;;;;6.10;4.47;;;;;;;9.43;100.00;98748.47;5027990;28;20668;-80
2022/04/19 06:42:36;;;;;;;6.87;4.67;;;;;;;9.51;100.00;98735.59;5031965;28;20229;-79
2022/04/19 06:45:07;;;;;;;6.17;4.87;;;;;;;9.67;100.00;98735.44;5028638;28;20229;-79
2022/04/19 06:47:36;;;;;;;7.00;4.77;;;;;;;9.91;100.00;98736.41;5010836;28;20212;-79
2022/04/19 06:50:05;;;;;;;8.37;4.60;;;;;;;9.99;100.00;98738.53;5073380;28;20639;-80
2022/04/19 06:52:34;;;;;;;7.87;4.93;;;;;;;10.03;100.00;98732.06;5072952;28;20216;-80
2022/04/19 06:55:03;;;;;;;7.93;4.80;;;;;;;10.16;100.00;98737.38;5075222;28;20265;-80
2022/04/19 06:57:39;;;;;;;7.67;4.73;;;;;;;10.31;100.00;98734.53;5069206;28;20216;-79
2022/04/19 07:00:11;;;;;;;8.83;5.33;;;;;;;10.50;100.00;98731.44;5078585;28;20210;-79
2022/04/19 07:02:40;;;;;;;8.00;4.70;;;;;;;10.71;100.00;98742.34;5040425;28;20196;-80
2022/04/19 07:05:10;;;;;;;7.83;4.83;;;;;;;10.73;100.00;98742.25;5074238;28;20636;-79
2022/04/19 07:07:40;;;;;;;8.53;4.90;;;;;;;10.84;100.00;98731.72;5080758;27;20196;-80
2022/04/19 07:10:10;;;;;;;7.70;4.80;;;;;;;10.86;100.00;98735.09;5075135;28;20351;-80
2022/04/19 07:12:44;;;;;;;7.17;4.40;;;;;;;11.09;100.00;98733.41;5076573;28;20669;-80
2022/04/19 07:15:14;;;;;;;10.83;4.33;;;;;;;11.19;100.00;98737.09;5078395;28;20196;-80
2022/04/19 07:17:46;;;;;;;8.77;4.70;;;;;;;11.30;100.00;98729.22;5060828;28;20205;-80
2022/04/19 07:28:35;;;;;;;8.27;4.60;;;;;;;11.91;100.00;98734.41;5063898;28;20199;-80
2022/04/19 07:31:06;;;;;;;5.37;4.07;;;;;;;12.09;100.00;98734.81;5075115;28;20215;-80
2022/04/19 07:33:38;;;;;;;7.10;4.70;;;;;;;12.33;97.21;98741.69;5063312;28;20231;-81
2022/04/19 07:36:06;;;;;;;6.77;4.80;;;;;;;12.54;93.86;98740.97;5076094;28;20226;-81
2022/04/19 07:38:35;;;;;;;9.37;4.97;;;;;;;12.49;91.47;98738.69;5079246;28;20254;-81
2022/04/19 07:41:04;;;;;;;6.83;4.80;;;;;;;12.73;87.22;98735.91;5072334;28;20196;-81
2022/04/19 07:43:33;;;;;;;7.00;5.00;;;;;;;12.57;81.92;98738.09;5076542;28;20328;-80
2022/04/19 07:46:04;;;;;;;6.10;4.70;;;;;;;12.79;81.56;98730.09;5074749;28;20200;-81
2022/04/19 07:48:34;;;;;;;6.57;4.33;;;;;;;12.98;80.07;98728.63;5076008;28;20203;-80
2022/04/19 07:51:03;;;;;;;6.17;4.93;;;;;;;13.13;79.47;98733.56;5072390;28;20184;-80
2022/04/19 07:53:32;;;;;;;8.23;5.30;;;;;;;13.14;76.93;98727.28;5074465;28;20220;-81
2022/04/19 07:56:02;;;;;;;6.70;5.20;;;;;;;13.26;78.14;98727.28;5077477;28;20208;-81
2022/04/19 07:58:33;;;;;;;6.83;5.17;;;;;;;13.49;78.76;98730.69;5066071;28;20280;-81
2022/04/19 08:01:02;;;;;;;7.17;5.20;;;;;;;13.43;77.12;98734.72;5052703;28;20184;-81
2022/04/19 08:03:30;;;;;;;7.33;4.80;;;;;;;13.69;75.18;98727.19;5055380;28;20197;-80
2022/04/19 08:06:00;;;;;;;11.57;6.17;;;;;;;13.83;72.23;98728.72;5052488;28;20195;-80
2022/04/19 08:08:29;;;;;;;9.60;6.30;;;;;;;14.08;70.31;98724.81;5043637;28;20255;-80
2022/04/19 08:11:00;;;;;;;6.90;5.23;;;;;;;14.02;68.06;98731.53;5044431;28;20189;-81
2022/04/19 08:13:32;;;;;;;8.07;5.47;;;;;;;14.17;64.77;98732.84;5050538;28;20208;-80
2022/04/19 08:16:01;;;;;;;10.83;5.80;;;;;;;14.25;64.87;98729.53;5065477;28;20197;-80
2022/04/19 08:18:30;;;;;;;10.17;5.90;;;;;;;14.39;66.15;98731.88;5048710;28;20257;-80
2022/04/19 08:20:59;;;;;;;7.70;5.37;;;;;;;14.59;65.86;98727.50;5056353;28;20188;-80
2022/04/19 08:23:29;;;;;;;9.30;6.00;;;;;;;14.55;66.27;98723.41;5065584;28;20203;-82
2022/04/19 08:25:59;;;;;;;9.17;5.73;;;;;;;14.72;62.46;98716.59;5075299;28;20242;-80
2022/04/19 08:28:28;;;;;;;7.60;5.37;;;;;;;14.51;63.04;98720.19;5069090;28;20195;-81
2022/04/19 08:30:56;;;;;;;8.10;5.27;;;;;;;14.59;64.35;98717.69;5068908;28;20500;-80
2022/04/19 08:33:26;;;;;;;8.87;5.50;;;;;;;14.74;64.99;98722.63;5068781;28;20232;-81
2022/04/19 08:35:54;;;;;;;8.93;5.27;;;;;;;14.62;63.30;98719.22;5074995;28;20249;-81
2022/04/19 08:38:26;;;;;;;9.00;5.17;;;;;;;14.52;63.18;98719.19;5010370;28;20201;-80
2022/04/19 08:40:55;;;;;;;8.80;5.10;;;;;;;14.74;62.86;98720.81;5008907;28;20210;-80
2022/04/19 08:43:25;;;;;;;10.03;6.10;;;;;;;14.96;60.83;98722.44;5013922;28;20285;-80
2022/04/19 08:45:56;;;;;;;8.10;5.40;;;;;;;15.12;61.26;98720.06;5005332;28;20210;-80
2022/04/19 08:48:27;;;;;;;9.10;6.83;;;;;;;15.12;59.27;98722.75;5009564;28;20230;-81
2022/04/19 08:50:56;;;;;;;9.30;6.50;;;;;;;15.35;55.53;98710.00;4910507;29;20198;-81
2022/04/19 08:59:03;;;;;;;9.27;5.13;;;;;;;15.72;55.84;98720.84;4991031;28;20281;-80
2022/04/19 09:01:34;;;;;;;6.73;4.80;;;;;;;15.98;54.85;98729.13;4980690;28;20218;-81
2022/04/19 09:04:07;;;;;;;6.07;4.70;;;;;;;15.79;53.64;98721.13;4989692;28;20285;-80
2022/04/19 09:06:55;;;;;;;6.33;4.93;;;;;;;15.97;54.51;98721.25;4995225;28;20205;-80
2022/04/19 09:09:26;;;;;;;9.67;4.90;;;;;;;16.06;53.53;98717.72;4988724;28;20397;-81
2022/04/19 09:12:08;;;;;;;6.17;4.07;;;;;;;16.33;53.36;98718.78;4991115;28;20199;-81
2022/04/19 09:14:36;;;;;;;5.13;3.80;;;;;;;16.40;55.06;98714.53;4991856;28;20219;-80
2022/04/19 09:17:07;;;;;;;6.70;4.57;;;;;;;16.40;52.41;98714.53;5051342;28;20204;-81
2022/04/19 09:19:37;;;;;;;6.27;4.60;;;;;;;16.19;53.77;98712.06;5007812;28;20205;-81
2022/04/19 09:22:09;;;;;;;6.50;4.33;;;;;;;16.45;55.06;98705.09;5009871;28;20199;-81
2022/04/19 09:24:39;;;;;;;5.20;3.97;;;;;;;16.44;54.57;98714.09;5010891;28;20201;-80
2022/04/19 09:27:08;;;;;;;5.13;3.90;;;;;;;16.30;52.77;98706.53;4968784;28;20202;-82
2022/04/19 09:29:37;;;;;;;5.63;3.93;;;;;;;16.68;53.78;98699.34;4969051;28;20196;-81
2022/04/19 09:32:14;;;;;;;5.67;4.10;;;;;;;16.39;53.03;98697.63;4974978;28;20211;-81
2022/04/19 09:34:48;;;;;;;5.83;4.40;;;;;;;16.63;51.00;98698.97;4980474;28;20276;-82
2022/04/19 09:37:16;;;;;;;6.77;4.33;;;;;;;16.94;51.75;98697.72;5008524;28;20195;-81
2022/04/19 09:39:47;;;;;;;5.53;4.10;;;;;;;16.76;54.08;98692.31;5024306;28;20217;-80
2022/04/19 09:42:16;;;;;;;6.27;4.30;;;;;;;16.65;54.41;98695.16;4979245;28;20206;-81
2022/04/19 09:44:51;;;;;;;5.83;4.10;;;;;;;16.87;53.73;98689.44;4944211;28;20244;-81
2022/04/19 09:47:20;;;;;;;6.60;4.50;;;;;;;16.77;54.67;98685.13;4934938;28;20207;-81
2022/04/19 09:49:53;;;;;;;5.63;4.73;;;;;;;16.86;54.65;98695.78;4923460;29;20261;-81
2022/04/19 09:52:48;;;;;;;5.97;4.37;;;;;;;17.38;51.92;98687.13;4967451;28;20353;-81
2022/04/19 09:55:25;;;;;;;5.67;3.73;;;;;;;17.14;52.32;98695.75;4989604;28;20219;-81
2022/04/19 09:58:02;;;;;;;5.07;3.90;;;;;;;17.17;54.23;98693.59;4987577;28;20202;-81
2022/04/19 10:00:31;;;;;;;5.53;4.13;;;;;;;17.25;53.09;98674.13;4991583;28;20201;-81
2022/04/19 10:08:37;;;;;;;7.73;3.40;;;;;;;17.46;50.62;98674.63;5032308;28;20201;-81
2022/04/19 10:11:13;;;;;;;5.90;3.20;;;;;;;17.73;48.04;98667.53;4955412;28;20191;-81
2022/04/19 10:13:53;;;;;;;5.30;3.03;;;;;;;17.95;47.21;98669.72;4949300;29;20202;-81
2022/04/19 10:16:23;;;;;;;4.77;2.70;;;;;;;18.26;50.47;98666.56;4939177;29;20216;-81
2022/04/19 10:18:52;;;;;;;4.90;3.13;;;;;;;18.36;48.54;98669.97;4981040;28;20233;-82
2022/04/19 10:21:24;;;;;;;3.40;2.63;;;;;;;18.90;44.65;98667.03;4970839;28;20199;-81
2022/04/19 10:24:12;;;;;;;3.60;2.90;;;;;;;19.25;44.27;98668.63;5005716;28;20206;-81
2022/04/19 10:26:48;;;;;;;4.83;3.10;;;;;;;18.72;47.71;98673.38;4927178;29;20212;-81
2022/04/19 10:29:24;;;;;;;4.83;3.47;;;;;;;19.15;45.34;98669.63;4953542;28;20203;-81
2022/04/19 10:32:01;;;;;;;4.97;3.27;;;;;;;19.50;44.37;98666.84;4988591;28;20207;-81
2022/04/19 10:34:45;;;;;;;4.00;3.17;;;;;;;18.87;45.59;98663.69;4999543;28;20203;-82
2022/04/19 10:37:23;;;;;;;4.73;2.70;;;;;;;19.21;47.29;98656.56;4974707;28;20307;-83
2022/04/19 10:39:54;;;;;;;3.50;2.57;;;;;;;19.10;45.96;98661.22;4998311;28;20209;-81
2022/04/19 10:42:32;;;;;;;4.43;3.00;;;;;;;18.58;45.96;98660.53;5001823;28;20201;-81
2022/04/19 10:45:20;;;;;;;3.50;2.80;;;;;;;19.20;46.46;98663.75;5034821;28;20227;-82
2022/04/19 10:48:17;;;;;;;3.93;2.97;;;;;;;19.47;44.81;98657.25;5057234;28;20279;-81
2022/04/19 10:50:51;;;;;;;3.80;2.50;;;;;;;19.83;46.22;98654.25;5049813;28;20212;-82
2022/04/19 10:53:33;;;;;;;2.80;2.50;;;;;;;19.03;46.43;98656.69;4976199;28;20202;-82
2022/04/19 10:56:08;;;;;;;3.20;2.27;;;;;;;19.13;46.42;98663.59;4885762;29;20279;-81
2022/04/19 10:58:44;;;;;;;4.27;2.43;;;;;;;19.73;43.51;98659.81;4878297;29;20218;-82
2022/04/19 11:01:32;;;;;;;3.07;2.10;;;;;;;19.98;42.80;98674.91;4869816;29;20207;-82
2022/04/19 11:04:02;;;;;;;3.47;2.20;;;;;;;19.46;44.32;98660.94;4865573;29;20227;-82
2022/04/19 11:06:42;;;;;;;2.80;2.33;;;;;;;19.73;45.01;98654.44;4869636;29;20199;-82
2022/04/19 11:09:22;;;;;;;5.90;2.20;;;;;;;19.84;44.12;98656.75;4869689;29;20233;-82
2022/04/19 11:11:54;;;;;;;4.20;2.57;;;;;;;19.30;44.58;98644.78;4867243;29;20213;-81
2022/04/19 11:14:37;;;;;;;6.22;2.08;;;;;;;18.79;47.23;98638.66;4877341;29;20234;-81
2022/04/19 11:17:41;;;;;;;3.20;2.30;;;;;;;19.23;46.65;98650.00;4881313;29;20290;-82
2022/04/19 11:20:14;;;;;;;3.67;2.10;;;;;;;20.20;44.28;98645.63;4945289;28;20225;-82
2022/04/19 11:22:58;;;;;;;4.20;2.00;;;;;;;20.33;43.16;98648.59;5002436;28;20266;-83
2022/04/19 11:25:39;;;;;;;6.17;2.30;;;;;;;19.95;42.28;98647.50;5013708;28;20203;-82
2022/04/19 11:28:20;;;;;;;3.30;1.90;;;;;;;19.46;42.95;98642.13;5078178;28;20196;-82
2022/04/19 11:31:23;;;;;;;1.70;1.40;;;;;;;19.86;42.28;98651.22;5072637;28;20213;-82
2022/04/19 11:33:58;;;;;;;2.60;2.00;;;;;;;19.23;41.18;98639.28;5058079;28;20203;-81
2022/04/19 11:36:28;;;;;;;2.63;1.83;;;;;;;20.50;40.07;98631.44;5028914;28;20224;-82
2022/04/19 11:38:59;;;;;;;3.00;2.00;;;;;;;20.67;40.86;98634.91;5025267;28;20194;-82
2022/04/19 11:47:15;;;;;;;1.30;1.20;;;;;;;20.77;35.92;98632.00;4916540;29;20202;-81
2022/04/19 11:49:48;;;;;;;1.67;1.38;;;;;;;20.45;36.53;98633.78;4912910;29;20284;-81
2022/04/19 11:52:21;;;;;;;2.22;1.60;;;;;;;20.76;35.74;98627.63;4911544;29;20210;-82
2022/04/19 11:54:57;;;;;;;2.33;1.80;;;;;;;20.22;37.24;98620.22;4914756;29;20201;-82
2022/04/19 11:57:31;;;;;;;2.63;1.70;;;;;;;20.17;36.40;98630.69;4878737;29;20233;-82
2022/04/19 12:00:00;;;;;;;3.33;1.77;;;;;;;19.81;38.54;98621.34;4853886;29;20208;-82
2022/04/19 12:02:33;;;;;;;3.93;1.73;;;;;;;19.93;39.21;98625.34;4836530;29;20211;-81
2022/04/19 12:05:06;;;;;;;1.90;1.50;;;;;;;20.95;38.45;98618.28;4818706;29;20233;-81
2022/04/19 12:07:46;;;;;;;1.50;1.40;;;;;;;20.70;37.97;98612.16;4845575;29;20200;-82
2022/04/19 12:10:17;;;;;;;2.17;1.80;;;;;;;20.94;37.75;98614.75;4853176;29;20215;-82
2022/04/19 12:12:56;;;;;;;5.10;1.90;;;;;;;20.78;36.25;98614.81;4858050;29;20210;-82
2022/04/19 12:15:41;;;;;;;4.25;2.10;;;;;;;20.65;37.88;98604.59;4858699;29;20209;-83
2022/04/19 12:18:30;;;;;;;3.45;2.28;;;;;;;21.39;38.81;98599.63;4902730;29;20232;-82
2022/04/19 12:21:01;;;;;;;3.10;1.83;;;;;;;20.65;37.46;98601.91;4936724;28;20201;-82
2022/04/19 12:23:41;;;;;;;5.10;2.20;;;;;;;21.08;37.10;98608.56;4987773;28;20190;-82
2022/04/19 12:26:13;;;;;;;3.70;2.53;;;;;;;21.15;37.98;98597.94;4934710;29;20251;-82
2022/04/19 12:28:47;;;;;;;3.55;1.85;;;;;;;21.63;37.30;98599.44;4934834;29;20196;-82
2022/04/19 12:31:31;;;;;;;2.40;2.00;;;;;;;21.58;36.76;98584.81;4951728;28;20200;-82
2022/04/19 12:34:04;;;;;;;2.30;2.10;;;;;;;21.91;36.82;98588.03;4958251;28;20216;-82
2022/04/19 12:36:45;;;;;;;4.80;2.40;;;;;;;21.77;36.65;98600.47;4955412;28;20679;-81
2022/04/19 12:39:15;;;;;;;4.18;2.20;;;;;;;22.13;35.88;98584.44;4904458;29;20218;-82